createdAt,value
2023-04-19T00:01:36.865Z,100.00
2023-04-19T00:04:03.745Z,100.00
2023-04-19T00:06:30.673Z,100.00
2023-04-19T00:08:57.871Z,100.00
2023-04-19T00:11:24.684Z,100.00
2023-04-19T00:13:51.422Z,100.00
2023-04-19T00:16:18.149Z,100.00
2023-04-19T00:18:44.793Z,100.00
2023-04-19T00:21:11.804Z,100.00
2023-04-19T00:23:38.527Z,100.00
2023-04-19T00:26:05.008Z,100.00
2023-04-19T00:28:31.703Z,100.00
2023-04-19T00:30:58.287Z,100.00
2023-04-19T00:33:24.926Z,100.00
2023-04-19T00:35:51.514Z,100.00
2023-04-19T00:38:18.172Z,100.00
2023-04-19T00:40:45.009Z,100.00
2023-04-19T00:43:11.666Z,100.00
2023-04-19T00:45:38.376Z,100.00
2023-04-19T00:48:05.325Z,100.00
2023-04-19T00:50:32.315Z,100.00
2023-04-19T00:53:02.344Z,100.00
2023-04-19T00:55:29.556Z,100.00
2023-04-19T00:57:56.417Z,100.00
2023-04-19T01:00:23.156Z,100.00
2023-04-19T01:02:49.892Z,100.00
2023-04-19T01:05:16.650Z,100.00
2023-04-19T01:07:43.455Z,100.00
2023-04-19T01:10:10.722Z,100.00
2023-04-19T01:12:37.684Z,100.00
2023-04-19T01:15:04.575Z,100.00
2023-04-19T01:17:32.398Z,100.00
2023-04-19T01:19:59.948Z,100.00
2023-04-19T01:22:26.628Z,100.00
2023-04-19T01:24:53.104Z,100.00
2023-04-19T01:27:20.193Z,100.00
2023-04-19T01:29:47.098Z,100.00
2023-04-19T01:32:14.224Z,100.00
2023-04-19T01:34:40.910Z,100.00
2023-04-19T01:37:07.850Z,100.00
2023-04-19T01:39:34.452Z,100.00
2023-04-19T01:42:01.696Z,100.00
2023-04-19T01:44:29.206Z,100.00
2023-04-19T01:46:56.604Z,100.00
2023-04-19T01:49:23.140Z,100.00
2023-04-19T01:51:49.680Z,100.00
2023-04-19T01:54:16.452Z,100.00
2023-04-19T01:56:43.176Z,100.00
2023-04-19T01:59:09.827Z,100.00
2023-04-19T02:01:36.731Z,100.00
2023-04-19T02:04:03.900Z,100.00
2023-04-19T02:06:31.847Z,100.00
2023-04-19T02:08:58.755Z,100.00
2023-04-19T02:11:25.369Z,100.00
2023-04-19T02:13:54.985Z,100.00
2023-04-19T02:16:21.699Z,100.00
2023-04-19T02:18:49.474Z,100.00
2023-04-19T02:21:16.502Z,100.00
2023-04-19T02:23:42.989Z,100.00
2023-04-19T02:26:09.689Z,100.00
2023-04-19T02:28:36.463Z,100.00
2023-04-19T02:31:04.937Z,100.00
2023-04-19T02:33:31.586Z,100.00
2023-04-19T02:35:58.274Z,100.00
2023-04-19T02:38:24.914Z,100.00
2023-04-19T02:40:51.909Z,100.00
2023-04-19T02:43:18.410Z,100.00
2023-04-19T02:45:45.135Z,100.00
2023-04-19T02:48:11.769Z,100.00
2023-04-19T02:50:41.198Z,100.00
2023-04-19T02:53:07.843Z,100.00
2023-04-19T02:55:34.418Z,100.00
2023-04-19T02:58:00.987Z,100.00
2023-04-19T03:00:27.650Z,100.00
2023-04-19T03:02:56.213Z,100.00
2023-04-19T03:05:23.382Z,100.00
2023-04-19T03:07:53.117Z,100.00
2023-04-19T03:10:19.953Z,100.00
2023-04-19T03:12:46.964Z,100.00
2023-04-19T03:15:13.626Z,100.00
2023-04-19T03:17:40.321Z,100.00
2023-04-19T03:20:10.140Z,100.00
2023-04-19T03:22:37.210Z,100.00
2023-04-19T03:25:04.762Z,100.00
2023-04-19T03:27:31.326Z,100.00
2023-04-19T03:29:58.550Z,100.00
2023-04-19T03:32:25.994Z,100.00
2023-04-19T03:34:53.140Z,100.00
2023-04-19T03:37:19.756Z,100.00
2023-04-19T03:39:50.160Z,100.00
2023-04-19T03:42:16.943Z,100.00
2023-04-19T03:44:43.400Z,100.00
2023-04-19T03:47:09.982Z,100.00
2023-04-19T03:49:36.617Z,100.00
2023-04-19T03:52:03.223Z,100.00
2023-04-19T03:54:30.189Z,100.00
2023-04-19T03:56:57.314Z,100.00
2023-04-19T03:59:23.909Z,100.00
2023-04-19T04:01:53.975Z,100.00
2023-04-19T04:04:21.342Z,100.00
2023-04-19T04:06:48.466Z,100.00
2023-04-19T04:09:15.113Z,100.00
2023-04-19T04:11:41.637Z,100.00
2023-04-19T04:14:08.292Z,100.00
2023-04-19T04:16:35.307Z,100.00
2023-04-19T04:19:02.034Z,100.00
2023-04-19T04:21:28.670Z,100.00
2023-04-19T04:23:55.366Z,100.00
2023-04-19T04:26:22.582Z,100.00
2023-04-19T04:28:49.111Z,100.00
2023-04-19T04:31:18.581Z,100.00
2023-04-19T04:33:46.160Z,100.00
2023-04-19T04:36:13.098Z,100.00
2023-04-19T04:38:39.605Z,100.00
2023-04-19T04:41:06.182Z,100.00
2023-04-19T04:43:33.659Z,100.00
2023-04-19T04:46:01.207Z,100.00
2023-04-19T04:48:28.074Z,100.00
2023-04-19T04:50:54.869Z,100.00
2023-04-19T04:53:21.549Z,100.00
2023-04-19T04:55:48.381Z,100.00
2023-04-19T04:58:15.093Z,100.00
2023-04-19T05:00:41.762Z,100.00
2023-04-19T05:03:08.586Z,100.00
2023-04-19T05:05:35.185Z,100.00
2023-04-19T05:08:02.328Z,100.00
2023-04-19T05:10:28.973Z,100.00
2023-04-19T05:12:55.697Z,100.00
2023-04-19T05:15:22.353Z,100.00
2023-04-19T05:17:48.944Z,100.00
2023-04-19T05:20:15.593Z,100.00
2023-04-19T05:22:42.161Z,100.00
2023-04-19T05:25:10.686Z,100.00
2023-04-19T05:27:37.298Z,100.00
2023-04-19T05:30:05.202Z,100.00
2023-04-19T05:32:34.800Z,100.00
2023-04-19T05:35:01.695Z,100.00
2023-04-19T05:37:28.389Z,100.00
2023-04-19T05:39:55.031Z,100.00
2023-04-19T05:42:21.877Z,100.00
2023-04-19T05:44:48.986Z,100.00
2023-04-19T05:47:17.673Z,100.00
2023-04-19T05:49:44.265Z,100.00
2023-04-19T05:52:11.302Z,100.00
2023-04-19T05:54:38.098Z,100.00
2023-04-19T05:57:04.620Z,100.00
2023-04-19T05:59:31.553Z,100.00
2023-04-19T06:01:58.292Z,100.00
2023-04-19T06:04:25.084Z,100.00
2023-04-19T06:06:52.046Z,100.00
2023-04-19T06:09:18.792Z,100.00
2023-04-19T06:11:50.706Z,100.00
2023-04-19T06:14:18.618Z,100.00
2023-04-19T06:16:45.797Z,100.00
2023-04-19T06:19:12.976Z,100.00
2023-04-19T06:21:39.564Z,100.00
2023-04-19T06:24:06.829Z,100.00
2023-04-19T06:26:33.333Z,100.00
2023-04-19T06:29:00.106Z,100.00
2023-04-19T06:31:26.712Z,100.00
2023-04-19T06:33:53.419Z,100.00
2023-04-19T06:36:20.073Z,100.00
2023-04-19T06:38:46.870Z,100.00
2023-04-19T06:41:13.682Z,100.00
2023-04-19T06:43:41.044Z,100.00
2023-04-19T06:46:07.996Z,100.00
2023-04-19T06:48:35.092Z,100.00
2023-04-19T06:51:01.823Z,100.00
2023-04-19T06:53:31.887Z,100.00
2023-04-19T06:56:01.249Z,100.00
2023-04-19T06:58:28.677Z,100.00
2023-04-19T07:00:55.247Z,100.00
2023-04-19T07:03:22.442Z,100.00
2023-04-19T07:05:49.309Z,100.00
2023-04-19T07:08:16.183Z,100.00
2023-04-19T07:10:43.932Z,100.00
2023-04-19T07:13:11.568Z,100.00
2023-04-19T07:15:38.407Z,100.00
2023-04-19T07:18:05.265Z,100.00
2023-04-19T07:20:31.957Z,100.00
2023-04-19T07:23:01.773Z,100.00
2023-04-19T07:25:28.554Z,100.00
2023-04-19T07:27:55.217Z,100.00
2023-04-19T07:30:22.201Z,100.00
2023-04-19T07:32:48.800Z,100.00
2023-04-19T07:35:15.467Z,100.00
2023-04-19T07:37:42.718Z,100.00
2023-04-19T07:40:09.621Z,100.00
2023-04-19T07:42:36.208Z,100.00
2023-04-19T07:45:03.155Z,100.00
2023-04-19T07:47:30.151Z,100.00
2023-04-19T07:49:56.709Z,100.00
2023-04-19T07:52:23.353Z,100.00
2023-04-19T07:54:50.250Z,100.00
2023-04-19T07:57:17.257Z,100.00
2023-04-19T07:59:44.181Z,100.00
2023-04-19T08:02:10.888Z,100.00
2023-04-19T08:04:38.169Z,100.00
2023-04-19T08:07:04.956Z,100.00
2023-04-19T08:09:33.735Z,100.00
2023-04-19T08:12:01.839Z,100.00
2023-04-19T08:14:40.459Z,100.00
2023-04-19T08:17:26.394Z,100.00
2023-04-19T08:19:56.075Z,100.00
2023-04-19T08:22:22.780Z,100.00
2023-04-19T08:24:49.896Z,100.00
2023-04-19T08:27:17.337Z,100.00
2023-04-19T08:29:44.163Z,100.00
2023-04-19T08:32:11.781Z,100.00
2023-04-19T08:34:39.826Z,100.00
2023-04-19T08:37:07.464Z,100.00
2023-04-19T08:39:34.762Z,97.36
2023-04-19T08:42:08.693Z,100.00
2023-04-19T08:44:53.840Z,99.09
2023-04-19T08:47:32.236Z,97.16
2023-04-19T08:50:16.792Z,96.04
2023-04-19T08:52:56.069Z,95.85
2023-04-19T08:55:26.250Z,92.76
2023-04-19T08:57:52.876Z,89.31
2023-04-19T09:00:19.910Z,89.12
2023-04-19T09:02:54.968Z,92.33
2023-04-19T09:05:22.101Z,92.13
2023-04-19T09:07:48.774Z,90.38
2023-04-19T09:10:16.806Z,91.81
2023-04-19T09:12:43.928Z,92.06
2023-04-19T09:15:11.140Z,84.84
2023-04-19T09:17:39.252Z,87.14
2023-04-19T09:20:06.868Z,86.80
2023-04-19T09:22:33.527Z,86.17
2023-04-19T09:27:32.007Z,83.70
2023-04-19T09:30:00.109Z,83.41
2023-04-19T09:32:27.599Z,83.49
2023-04-19T09:34:56.466Z,83.94
2023-04-19T09:37:41.470Z,82.02
2023-04-19T09:40:23.465Z,78.91
2023-04-19T09:45:29.922Z,73.24
2023-04-19T09:48:10.024Z,72.99
2023-04-19T09:50:46.848Z,76.93
2023-04-19T09:53:21.145Z,73.98
2023-04-19T09:55:59.668Z,70.94
2023-04-19T09:58:34.259Z,67.31
2023-04-19T10:01:14.131Z,65.60
2023-04-19T10:03:43.310Z,63.92
2023-04-19T10:06:15.486Z,66.19
2023-04-19T10:08:56.414Z,66.52
2023-04-19T10:11:23.693Z,69.81
2023-04-19T10:13:54.290Z,70.36
2023-04-19T10:16:21.674Z,74.12
2023-04-19T10:18:52.971Z,76.02
2023-04-19T10:21:20.881Z,74.48
2023-04-19T10:23:48.142Z,74.24
2023-04-19T10:26:15.120Z,75.33
2023-04-19T10:28:42.464Z,66.55
2023-04-19T10:31:11.829Z,70.46
2023-04-19T10:33:38.497Z,72.72
2023-04-19T10:36:08.818Z,71.26
2023-04-19T10:38:38.572Z,73.35
2023-04-19T10:41:13.634Z,74.42
2023-04-19T10:43:46.544Z,71.53
2023-04-19T10:46:16.481Z,70.29
2023-04-19T10:48:56.649Z,66.25
2023-04-19T10:51:32.849Z,70.43
2023-04-19T10:54:00.597Z,73.18
2023-04-19T10:56:33.226Z,73.61
2023-04-19T10:59:02.862Z,70.14
2023-04-19T11:01:37.412Z,72.09
2023-04-19T11:04:04.859Z,70.89
2023-04-19T11:06:31.933Z,69.25
2023-04-19T11:08:58.541Z,72.28
2023-04-19T11:11:28.406Z,72.42
2023-04-19T11:13:56.511Z,73.82
2023-04-19T11:16:31.233Z,79.30
2023-04-19T11:19:08.801Z,79.31
2023-04-19T11:21:55.885Z,80.82
2023-04-19T11:24:22.432Z,84.94
2023-04-19T11:26:49.360Z,83.48
2023-04-19T11:29:16.208Z,81.13
2023-04-19T11:31:46.724Z,82.26
2023-04-19T11:34:13.878Z,74.73
2023-04-19T11:36:50.700Z,74.58
2023-04-19T11:39:17.394Z,76.03
2023-04-19T11:41:44.019Z,74.79
2023-04-19T11:44:14.982Z,73.97
2023-04-19T11:46:42.526Z,73.97
2023-04-19T11:49:09.116Z,75.80
2023-04-19T11:51:35.854Z,72.60
2023-04-19T11:54:02.538Z,75.01
2023-04-19T11:56:29.179Z,75.83
2023-04-19T11:58:58.039Z,77.75
2023-04-19T12:01:26.032Z,78.88
2023-04-19T12:03:54.234Z,75.20
2023-04-19T12:06:32.161Z,77.28
2023-04-19T12:09:01.614Z,80.94
2023-04-19T12:11:42.854Z,80.73
2023-04-19T12:14:13.719Z,83.86
2023-04-19T12:16:40.990Z,82.57
2023-04-19T12:19:14.182Z,80.70
2023-04-19T12:21:41.356Z,80.94
2023-04-19T12:24:08.022Z,84.02
2023-04-19T12:26:34.766Z,87.28
2023-04-19T12:29:01.904Z,89.34
2023-04-19T12:31:28.898Z,88.70
2023-04-19T12:33:55.648Z,87.40
2023-04-19T12:36:22.825Z,91.27
2023-04-19T12:38:49.513Z,90.33
2023-04-19T12:41:16.232Z,88.30
2023-04-19T12:43:42.904Z,92.59
2023-04-19T12:46:09.605Z,91.41
2023-04-19T12:48:36.226Z,77.30
2023-04-19T12:51:02.745Z,76.09
2023-04-19T12:53:29.485Z,72.98
2023-04-19T12:55:56.145Z,73.64
2023-04-19T12:58:23.262Z,75.24
2023-04-19T13:00:49.975Z,77.21
2023-04-19T13:03:17.226Z,80.16
2023-04-19T13:05:44.090Z,78.90
2023-04-19T13:08:10.723Z,80.64
2023-04-19T13:10:37.338Z,73.85
2023-04-19T13:13:04.341Z,72.48
2023-04-19T13:15:31.309Z,70.61
2023-04-19T13:17:57.837Z,65.24
2023-04-19T13:20:24.470Z,66.26
2023-04-19T13:22:51.106Z,72.01
2023-04-19T13:25:17.847Z,67.98
2023-04-19T13:27:44.501Z,69.58
2023-04-19T13:30:11.212Z,68.76
2023-04-19T13:32:38.036Z,69.33
2023-04-19T13:35:05.139Z,72.04
2023-04-19T13:37:31.951Z,69.22
2023-04-19T13:40:10.548Z,74.29
2023-04-19T13:42:44.473Z,79.44
2023-04-19T13:45:11.616Z,80.56
2023-04-19T13:47:38.417Z,84.09
2023-04-19T13:50:05.200Z,77.95
2023-04-19T13:52:31.625Z,82.86
2023-04-19T13:54:58.383Z,81.03
2023-04-19T13:57:25.035Z,83.48
2023-04-19T13:59:51.787Z,79.93
2023-04-19T14:02:18.773Z,77.92
2023-04-19T14:04:45.714Z,76.85
2023-04-19T14:07:12.585Z,76.47
2023-04-19T14:09:42.621Z,79.54
2023-04-19T14:12:09.828Z,81.87
2023-04-19T14:14:37.594Z,79.60
2023-04-19T14:17:04.103Z,82.61
2023-04-19T14:19:30.740Z,83.38
2023-04-19T14:21:57.460Z,83.65
2023-04-19T14:24:24.130Z,84.06
2023-04-19T14:27:03.543Z,82.40
2023-04-19T14:29:36.161Z,82.51
2023-04-19T14:32:16.678Z,81.21
2023-04-19T14:34:49.300Z,77.08
2023-04-19T14:37:16.369Z,75.38
2023-04-19T14:39:45.073Z,72.94
2023-04-19T14:42:12.380Z,75.15
2023-04-19T14:44:39.147Z,72.60
2023-04-19T14:47:05.986Z,72.94
2023-04-19T14:49:32.738Z,73.65
2023-04-19T14:51:59.268Z,71.52
2023-04-19T14:54:25.897Z,73.16
2023-04-19T14:56:53.051Z,74.54
2023-04-19T14:59:19.662Z,76.30
2023-04-19T15:01:46.285Z,78.16
2023-04-19T15:04:13.055Z,80.03
2023-04-19T15:06:41.137Z,80.49
2023-04-19T15:09:07.751Z,81.21
2023-04-19T15:11:34.388Z,83.97
2023-04-19T15:14:01.180Z,83.50
2023-04-19T15:16:27.983Z,86.33
2023-04-19T15:18:55.557Z,87.32
2023-04-19T15:21:24.643Z,89.00
2023-04-19T15:23:51.857Z,88.26
2023-04-19T15:26:18.445Z,90.38
2023-04-19T15:28:44.954Z,88.18
2023-04-19T15:31:11.618Z,84.44
2023-04-19T15:33:38.918Z,85.12
2023-04-19T15:36:05.822Z,87.18
2023-04-19T15:38:32.890Z,87.63
2023-04-19T15:41:00.599Z,89.99
2023-04-19T15:43:27.234Z,91.17
2023-04-19T15:45:53.939Z,92.26
2023-04-19T15:48:23.777Z,93.89
2023-04-19T15:50:50.886Z,97.18
2023-04-19T15:53:17.905Z,97.80
2023-04-19T15:55:47.009Z,100.00
2023-04-19T15:58:13.757Z,99.34
2023-04-19T16:00:40.356Z,98.94
2023-04-19T16:03:08.479Z,99.14
2023-04-19T16:05:35.144Z,100.00
2023-04-19T16:08:03.093Z,100.00
2023-04-19T16:10:30.138Z,100.00
2023-04-19T16:12:56.994Z,100.00
2023-04-19T16:15:23.687Z,100.00
2023-04-19T16:17:50.962Z,100.00
2023-04-19T16:20:17.905Z,100.00
2023-04-19T16:22:44.412Z,100.00
2023-04-19T16:25:14.425Z,100.00
2023-04-19T16:27:44.945Z,100.00
2023-04-19T16:30:12.456Z,100.00
2023-04-19T16:32:39.481Z,100.00
2023-04-19T16:35:07.137Z,100.00
2023-04-19T16:37:34.110Z,100.00
2023-04-19T16:40:08.274Z,100.00
2023-04-19T16:42:35.774Z,100.00
2023-04-19T16:45:02.737Z,100.00
2023-04-19T16:47:31.122Z,100.00
2023-04-19T16:49:58.328Z,100.00
2023-04-19T16:52:25.451Z,100.00
2023-04-19T16:54:52.120Z,100.00
2023-04-19T16:57:18.992Z,100.00
2023-04-19T16:59:45.629Z,100.00
2023-04-19T17:02:12.292Z,100.00
2023-04-19T17:04:39.592Z,100.00
2023-04-19T17:07:08.927Z,100.00
2023-04-19T17:09:35.739Z,100.00
2023-04-19T17:12:02.906Z,100.00
2023-04-19T17:14:29.850Z,100.00
2023-04-19T17:16:56.921Z,100.00
2023-04-19T17:19:24.236Z,100.00
2023-04-19T17:21:51.702Z,100.00
2023-04-19T17:24:18.696Z,100.00
2023-04-19T17:26:45.516Z,100.00
2023-04-19T17:29:12.133Z,100.00
2023-04-19T17:31:39.040Z,100.00
2023-04-19T17:34:05.883Z,100.00
2023-04-19T17:36:32.710Z,100.00
2023-04-19T17:38:59.250Z,100.00
2023-04-19T17:41:26.069Z,100.00
2023-04-19T17:43:52.691Z,100.00
2023-04-19T17:46:21.408Z,100.00
2023-04-19T17:48:48.297Z,100.00
2023-04-19T17:51:15.559Z,100.00
2023-04-19T17:53:42.180Z,100.00
2023-04-19T17:56:08.744Z,100.00
2023-04-19T17:58:36.562Z,100.00
2023-04-19T18:01:03.805Z,100.00
2023-04-19T18:03:33.702Z,100.00
2023-04-19T18:06:00.850Z,100.00
2023-04-19T18:08:27.758Z,100.00
2023-04-19T18:10:54.619Z,100.00
2023-04-19T18:13:21.337Z,100.00
2023-04-19T18:15:50.455Z,100.00
2023-04-19T18:18:17.173Z,100.00
2023-04-19T18:20:44.649Z,100.00
2023-04-19T18:23:12.224Z,100.00
2023-04-19T18:25:39.821Z,100.00
2023-04-19T18:28:06.934Z,100.00
2023-04-19T18:30:33.894Z,100.00
2023-04-19T18:33:00.691Z,100.00
2023-04-19T18:35:27.588Z,100.00
2023-04-19T18:37:54.815Z,100.00
2023-04-19T18:40:21.761Z,100.00
2023-04-19T18:42:48.534Z,100.00
2023-04-19T18:45:15.150Z,100.00
2023-04-19T18:47:42.216Z,100.00
2023-04-19T18:50:09.318Z,100.00
2023-04-19T18:52:38.528Z,100.00
2023-04-19T18:55:06.231Z,100.00
2023-04-19T18:57:34.862Z,100.00
2023-04-19T19:00:02.324Z,100.00
2023-04-19T19:02:29.295Z,100.00
2023-04-19T19:05:00.994Z,100.00
2023-04-19T19:10:09.609Z,100.00
2023-04-19T19:12:43.581Z,100.00
2023-04-19T19:15:10.958Z,100.00
2023-04-19T19:17:38.482Z,100.00
2023-04-19T19:20:06.887Z,100.00
2023-04-19T19:22:34.232Z,100.00
2023-04-19T19:25:01.261Z,100.00
2023-04-19T19:27:28.242Z,100.00
2023-04-19T19:29:55.364Z,100.00
2023-04-19T19:32:22.590Z,100.00
2023-04-19T19:34:56.508Z,100.00
2023-04-19T19:37:27.792Z,100.00
2023-04-19T19:39:56.251Z,100.00
2023-04-19T19:42:24.297Z,100.00
2023-04-19T19:44:55.321Z,100.00
2023-04-19T19:47:22.485Z,100.00
2023-04-19T19:50:29.384Z,100.00
2023-04-19T19:52:38.106Z,100.00
2023-04-19T19:55:05.312Z,100.00
2023-04-19T19:58:16.403Z,100.00
2023-04-19T20:00:41.813Z,100.00
2023-04-19T20:03:06.670Z,100.00
2023-04-19T20:05:34.142Z,100.00
2023-04-19T20:08:05.816Z,100.00
2023-04-19T20:10:32.630Z,100.00
2023-04-19T20:13:01.630Z,100.00
2023-04-19T20:15:28.750Z,100.00
2023-04-19T20:17:55.453Z,100.00
2023-04-19T20:20:22.203Z,100.00
2023-04-19T20:22:49.244Z,100.00
2023-04-19T20:25:15.954Z,100.00
2023-04-19T20:27:42.636Z,100.00
2023-04-19T20:30:09.554Z,100.00
2023-04-19T20:32:36.696Z,100.00
2023-04-19T20:35:08.588Z,100.00
2023-04-19T20:37:40.039Z,100.00
2023-04-19T20:40:07.567Z,100.00
2023-04-19T20:42:34.190Z,100.00
2023-04-19T20:45:01.111Z,100.00
2023-04-19T20:47:27.660Z,100.00
2023-04-19T20:49:54.500Z,100.00
2023-04-19T20:52:20.968Z,100.00
2023-04-19T20:54:47.717Z,100.00
2023-04-19T20:57:15.380Z,100.00
2023-04-19T20:59:42.033Z,100.00
2023-04-19T21:02:08.879Z,100.00
2023-04-19T21:04:36.430Z,100.00
2023-04-19T21:07:03.394Z,100.00
2023-04-19T21:09:30.687Z,100.00
2023-04-19T21:11:58.449Z,100.00
2023-04-19T21:14:25.094Z,100.00
2023-04-19T21:16:52.331Z,100.00
2023-04-19T21:19:19.321Z,100.00
2023-04-19T21:21:45.983Z,100.00
2023-04-19T21:24:12.584Z,100.00
2023-04-19T21:26:39.143Z,100.00
2023-04-19T21:29:06.065Z,100.00
2023-04-19T21:31:33.118Z,100.00
2023-04-19T21:33:59.789Z,100.00
2023-04-19T21:36:26.827Z,100.00
2023-04-19T21:38:53.378Z,100.00
2023-04-19T21:41:19.954Z,100.00
2023-04-19T21:43:46.673Z,100.00
2023-04-19T21:46:13.452Z,100.00
2023-04-19T21:48:40.117Z,100.00
2023-04-19T21:51:07.191Z,100.00
2023-04-19T21:53:34.266Z,100.00
2023-04-19T21:56:02.869Z,100.00
2023-04-19T21:58:29.773Z,100.00
2023-04-19T22:00:56.742Z,100.00
2023-04-19T22:03:23.621Z,100.00
2023-04-19T22:05:50.986Z,100.00
2023-04-19T22:08:18.149Z,100.00
2023-04-19T22:10:44.940Z,100.00
2023-04-19T22:13:11.545Z,100.00
2023-04-19T22:15:38.522Z,100.00
2023-04-19T22:18:05.403Z,100.00
2023-04-19T22:20:33.917Z,100.00
2023-04-19T22:23:00.653Z,100.00
2023-04-19T22:25:27.419Z,100.00
2023-04-19T22:27:54.045Z,100.00
2023-04-19T22:30:20.773Z,100.00
2023-04-19T22:32:47.591Z,100.00
2023-04-19T22:35:14.384Z,100.00
2023-04-19T22:37:41.507Z,100.00
2023-04-19T22:40:08.564Z,100.00
2023-04-19T22:42:37.682Z,100.00
2023-04-19T22:45:04.461Z,100.00
2023-04-19T22:47:32.784Z,100.00
2023-04-19T22:49:59.680Z,100.00
2023-04-19T22:52:26.533Z,100.00
2023-04-19T22:54:53.200Z,100.00
2023-04-19T22:57:19.730Z,100.00
2023-04-19T22:59:46.609Z,100.00
2023-04-19T23:02:14.351Z,100.00
2023-04-19T23:04:41.785Z,100.00
2023-04-19T23:07:08.370Z,100.00
2023-04-19T23:09:34.891Z,100.00
2023-04-19T23:12:01.555Z,100.00
2023-04-19T23:14:29.387Z,100.00
2023-04-19T23:16:57.427Z,100.00
2023-04-19T23:19:24.232Z,100.00
2023-04-19T23:21:51.109Z,100.00
2023-04-19T23:24:17.788Z,100.00
2023-04-19T23:26:44.532Z,100.00
2023-04-19T23:29:11.121Z,100.00
2023-04-19T23:31:37.874Z,100.00
2023-04-19T23:34:04.527Z,100.00
2023-04-19T23:36:31.328Z,100.00
2023-04-19T23:38:57.926Z,100.00
2023-04-19T23:41:24.808Z,100.00
2023-04-19T23:43:51.658Z,100.00
2023-04-19T23:46:18.296Z,100.00
2023-04-19T23:48:44.890Z,100.00
2023-04-19T23:51:12.732Z,100.00
2023-04-19T23:53:39.495Z,100.00
2023-04-19T23:56:06.865Z,100.00
2023-04-19T23:58:33.800Z,100.00
